Time,TemperatureF,DewpointF,PressureIn,WindDirection,WindDirectionDegrees,WindSpeedMPH,WindSpeedGustMPH,Humidity,HourlyPrecipIn,Conditions,Clouds,dailyrainin,SoftwareType,DateUTC
2013-03-16 00:02:00,47.0,41.0,-100.00,WNW,292,13.0,15.0,81,-99.99,,,-99.99,,2013-03-16 07:02:00,
2013-03-16 00:12:00,46.0,41.0,-100.00,WNW,290,14.0,16.0,82,-99.99,,,-99.99,,2013-03-16 07:12:00,
2013-03-16 00:22:00,46.0,42.0,-100.00,WNW,297,15.0,16.0,84,-99.99,,,-99.99,,2013-03-16 07:22:00,
2013-03-16 00:32:00,46.0,42.0,-100.00,WNW,299,15.0,17.0,85,-99.99,,,-99.99,,2013-03-16 07:32:00,
2013-03-16 00:42:00,46.0,42.0,-100.00,WNW,299,15.0,18.0,86,-99.99,,,-99.99,,2013-03-16 07:42:00,
2013-03-16 00:52:00,46.0,42.0,-100.00,WNW,299,15.0,17.0,86,-99.99,,,-99.99,,2013-03-16 07:52:00,
2013-03-16 01:02:00,46.0,43.0,-100.00,WNW,297,15.0,17.0,87,-99.99,,,-99.99,,2013-03-16 08:02:00,
2013-03-16 01:12:00,46.0,42.0,-100.00,WNW,297,13.0,15.0,87,-99.99,,,-99.99,,2013-03-16 08:12:00,
2013-03-16 01:22:00,46.0,43.0,-100.00,WNW,297,13.0,16.0,88,-99.99,,,-99.99,,2013-03-16 08:22:00,
2013-03-16 01:32:00,46.0,43.0,-100.00,WNW,297,13.0,16.0,88,-99.99,,,-99.99,,2013-03-16 08:32:00,
2013-03-16 01:42:00,46.0,43.0,-100.00,WNW,300,13.0,15.0,89,-99.99,,,-99.99,,2013-03-16 08:42:00,
2013-03-16 01:52:00,46.0,43.0,-100.00,WNW,303,15.0,18.0,90,-99.99,,,-99.99,,2013-03-16 08:52:00,
2013-03-16 02:01:00,46.0,43.0,-100.00,NW,304,14.0,18.0,90,-99.99,,,-99.99,,2013-03-16 09:01:00,
2013-03-16 02:12:00,46.0,43.0,-100.00,WNW,301,15.0,19.0,90,-99.99,,,-99.99,,2013-03-16 09:12:00,
2013-03-16 02:22:00,45.0,43.0,-100.00,WNW,293,14.0,16.0,91,-99.99,,,-99.99,,2013-03-16 09:22:00,
2013-03-16 02:32:00,45.0,43.0,-100.00,WNW,299,16.0,20.0,92,-99.99,,,-99.99,,2013-03-16 09:32:00,
2013-03-16 02:42:00,45.0,43.0,-100.00,WNW,303,15.0,20.0,93,-99.99,,,-99.99,,2013-03-16 09:42:00,
2013-03-16 02:52:00,45.0,44.0,-100.00,WNW,303,15.0,18.0,94,-99.99,,,-99.99,,2013-03-16 09:52:00,
2013-03-16 03:03:00,45.0,43.0,-100.00,WNW,297,15.0,18.0,94,-99.99,,,-99.99,,2013-03-16 10:03:00,
2013-03-16 03:12:00,45.0,43.0,-100.00,NW,304,15.0,19.0,95,-99.99,,,-99.99,,2013-03-16 10:12:00,
2013-03-16 03:22:00,45.0,44.0,-100.00,WNW,298,14.0,18.0,96,-99.99,,,-99.99,,2013-03-16 10:22:00,
2013-03-16 03:32:00,45.0,43.0,-100.00,WNW,301,16.0,19.0,95,-99.99,,,-99.99,,2013-03-16 10:32:00,
2013-03-16 03:42:00,44.0,43.0,-100.00,WNW,297,15.0,18.0,95,-99.99,,,-99.99,,2013-03-16 10:42:00,
2013-03-16 03:52:00,45.0,44.0,-100.00,WNW,299,15.0,19.0,96,-99.99,,,-99.99,,2013-03-16 10:52:00,
2013-03-16 04:03:00,44.0,43.0,-100.00,NW,307,20.0,23.0,96,-99.99,,,-99.99,,2013-03-16 11:03:00,
2013-03-16 04:12:00,44.0,43.0,-100.00,WNW,301,17.0,21.0,97,-99.99,,,-99.99,,2013-03-16 11:12:00,
2013-03-16 04:22:00,44.0,43.0,-100.00,NW,308,17.0,21.0,97,-99.99,,,-99.99,,2013-03-16 11:22:00,
2013-03-16 04:32:00,44.0,43.0,-100.00,NW,308,17.0,21.0,97,-99.99,,,-99.99,,2013-03-16 11:32:00,
2013-03-16 04:42:00,43.0,43.0,-100.00,NW,307,19.0,24.0,98,-99.99,,,-99.99,,2013-03-16 11:42:00,
2013-03-16 04:52:00,43.0,43.0,-100.00,NW,305,18.0,22.0,99,-99.99,,,-99.99,,2013-03-16 11:52:00,
2013-03-16 05:02:00,43.0,43.0,-100.00,NW,309,17.0,21.0,99,-99.99,,,-99.99,,2013-03-16 12:02:00,
2013-03-16 05:12:00,43.0,43.0,-100.00,NW,310,17.0,21.0,99,-99.99,,,-99.99,,2013-03-16 12:12:00,
2013-03-16 05:22:00,43.0,43.0,-100.00,NW,307,18.0,22.0,99,-99.99,,,-99.99,,2013-03-16 12:22:00,
2013-03-16 05:32:00,43.0,43.0,-100.00,WNW,303,18.0,21.0,99,-99.99,,,-99.99,,2013-03-16 12:32:00,
2013-03-16 05:42:00,43.0,43.0,-100.00,WNW,302,17.0,22.0,99,-99.99,,,-99.99,,2013-03-16 12:42:00,
2013-03-16 05:52:00,43.0,43.0,-100.00,WNW,297,18.0,21.0,98,-99.99,,,-99.99,,2013-03-16 12:52:00,
2013-03-16 06:02:00,43.0,42.0,-100.00,WNW,303,21.0,27.0,97,-99.99,,,-99.99,,2013-03-16 13:02:00,
2013-03-16 06:12:00,43.0,42.0,-100.00,WNW,299,20.0,26.0,98,-99.99,,,-99.99,,2013-03-16 13:12:00,
2013-03-16 06:22:00,43.0,42.0,-100.00,WNW,296,20.0,24.0,98,-99.99,,,-99.99,,2013-03-16 13:22:00,
2013-03-16 06:32:00,42.0,42.0,-100.00,WNW,299,15.0,19.0,99,-99.99,,,-99.99,,2013-03-16 13:32:00,
2013-03-16 06:42:00,42.0,42.0,-100.00,WNW,300,16.0,20.0,99,-99.99,,,-99.99,,2013-03-16 13:42:00,
2013-03-16 06:52:00,42.0,42.0,-100.00,WNW,296,16.0,19.0,99,-99.99,,,-99.99,,2013-03-16 13:52:00,
2013-03-16 07:02:00,42.0,42.0,-100.00,WNW,297,16.0,18.0,99,-99.99,,,-99.99,,2013-03-16 14:02:00,
2013-03-16 07:12:00,42.0,42.0,-100.00,WNW,301,15.0,20.0,99,-99.99,,,-99.99,,2013-03-16 14:12:00,
2013-03-16 07:22:00,42.0,42.0,-100.00,WNW,300,16.0,21.0,99,-99.99,,,-99.99,,2013-03-16 14:22:00,
2013-03-16 07:32:00,42.0,41.0,-100.00,WNW,298,18.0,23.0,98,-99.99,,,-99.99,,2013-03-16 14:32:00,
2013-03-16 07:42:00,42.0,41.0,-100.00,WNW,299,14.0,17.0,99,-99.99,,,-99.99,,2013-03-16 14:42:00,
2013-03-16 07:52:00,42.0,41.0,-100.00,WNW,298,16.0,22.0,98,-99.99,,,-99.99,,2013-03-16 14:52:00,
2013-03-16 08:02:00,41.0,41.0,-100.00,WNW,300,18.0,22.0,98,-99.99,,,-99.99,,2013-03-16 15:02:00,
2013-03-16 08:12:00,41.0,41.0,-100.00,NW,308,19.0,25.0,98,-99.99,,,-99.99,,2013-03-16 15:12:00,
2013-03-16 08:22:00,41.0,41.0,-100.00,WNW,303,18.0,23.0,98,-99.99,,,-99.99,,2013-03-16 15:22:00,
2013-03-16 08:33:00,41.0,41.0,-100.00,NW,307,17.0,20.0,98,-99.99,,,-99.99,,2013-03-16 15:33:00,
2013-03-16 08:42:00,42.0,41.0,-100.00,NW,310,17.0,21.0,97,-99.99,,,-99.99,,2013-03-16 15:42:00,
2013-03-16 08:52:00,42.0,41.0,-100.00,NW,304,16.0,21.0,97,-99.99,,,-99.99,,2013-03-16 15:52:00,
2013-03-16 09:02:00,42.0,41.0,-100.00,NW,307,16.0,20.0,97,-99.99,,,-99.99,,2013-03-16 16:02:00,
2013-03-16 09:12:00,42.0,41.0,-100.00,NW,304,14.0,17.0,96,-99.99,,,-99.99,,2013-03-16 16:12:00,
2013-03-16 09:22:00,42.0,41.0,-100.00,WNW,299,16.0,22.0,95,-99.99,,,-99.99,,2013-03-16 16:22:00,
2013-03-16 09:33:00,43.0,41.0,-100.00,WNW,292,14.0,17.0,94,-99.99,,,-99.99,,2013-03-16 16:33:00,
2013-03-16 09:42:00,43.0,41.0,-100.00,WNW,295,14.0,17.0,95,-99.99,,,-99.99,,2013-03-16 16:42:00,
2013-03-16 09:52:00,43.0,42.0,-100.00,WNW,300,13.0,15.0,95,-99.99,,,-99.99,,2013-03-16 16:52:00,
2013-03-16 10:02:00,44.0,42.0,-100.00,WNW,296,16.0,19.0,95,-99.99,,,-99.99,,2013-03-16 17:02:00,
2013-03-16 10:12:00,44.0,42.0,-100.00,WNW,298,18.0,20.0,95,-99.99,,,-99.99,,2013-03-16 17:12:00,
2013-03-16 10:22:00,44.0,42.0,-100.00,WNW,290,19.0,22.0,92,-99.99,,,-99.99,,2013-03-16 17:22:00,
2013-03-16 10:32:00,44.0,42.0,-100.00,WNW,290,19.0,22.0,92,-99.99,,,-99.99,,2013-03-16 17:32:00,
2013-03-16 10:42:00,44.0,43.0,-100.00,WNW,293,18.0,22.0,93,-99.99,,,-99.99,,2013-03-16 17:42:00,
2013-03-16 10:52:00,45.0,43.0,-100.00,WNW,299,19.0,25.0,92,-99.99,,,-99.99,,2013-03-16 17:52:00,
2013-03-16 11:02:00,45.0,43.0,-100.00,WNW,294,19.0,26.0,93,-99.99,,,-99.99,,2013-03-16 18:02:00,
2013-03-16 11:13:00,45.0,42.0,-100.00,WNW,283,19.0,24.0,88,-99.99,,,-99.99,,2013-03-16 18:13:00,
2013-03-16 11:22:00,46.0,43.0,-100.00,WNW,287,18.0,23.0,87,-99.99,,,-99.99,,2013-03-16 18:22:00,
2013-03-16 11:32:00,46.0,41.0,-100.00,West,276,19.0,24.0,83,-99.99,,,-99.99,,2013-03-16 18:32:00,
2013-03-16 11:42:00,46.0,41.0,-100.00,WNW,282,16.0,22.0,82,-99.99,,,-99.99,,2013-03-16 18:42:00,
2013-03-16 11:52:00,46.0,43.0,-100.00,WNW,296,18.0,23.0,88,-99.99,,,-99.99,,2013-03-16 18:52:00,
2013-03-16 12:02:00,47.0,44.0,-100.00,WNW,299,17.0,22.0,88,-99.99,,,-99.99,,2013-03-16 19:02:00,
2013-03-16 12:12:00,46.0,44.0,-100.00,WNW,294,19.0,24.0,90,-99.99,,,-99.99,,2013-03-16 19:12:00,
2013-03-16 12:22:00,46.0,42.0,-100.00,West,279,20.0,26.0,85,-99.99,,,-99.99,,2013-03-16 19:22:00,
2013-03-16 12:32:00,46.0,44.0,-100.00,WNW,285,19.0,29.0,91,-99.99,,,-99.99,,2013-03-16 19:32:00,
2013-03-16 12:42:00,46.0,43.0,-100.00,West,277,19.0,24.0,88,-99.99,,,-99.99,,2013-03-16 19:42:00,
2013-03-16 12:52:00,46.0,41.0,-100.00,WNW,292,21.0,31.0,83,-99.99,,,-99.99,,2013-03-16 19:52:00,
2013-03-16 13:02:00,46.0,40.0,-100.00,WNW,301,22.0,29.0,80,-99.99,,,-99.99,,2013-03-16 20:02:00,
2013-03-16 13:12:00,45.0,42.0,-100.00,WNW,302,25.0,35.0,86,-99.99,,,-99.99,,2013-03-16 20:12:00,
2013-03-16 13:21:00,44.0,41.0,-100.00,WNW,282,26.0,40.0,86,-99.99,,,-99.99,,2013-03-16 20:21:00,
2013-03-16 13:32:00,44.0,42.0,-100.00,WNW,297,25.0,29.0,91,-99.99,,,-99.99,,2013-03-16 20:32:00,
2013-03-16 13:42:00,44.0,40.0,-100.00,WNW,286,25.0,29.0,87,-99.99,,,-99.99,,2013-03-16 20:42:00,
2013-03-16 13:52:00,45.0,38.0,-100.00,West,264,29.0,37.0,76,-99.99,,,-99.99,,2013-03-16 20:52:00,
2013-03-16 14:02:00,45.0,38.0,-100.00,West,272,25.0,32.0,74,-99.99,,,-99.99,,2013-03-16 21:02:00,
2013-03-16 14:12:00,45.0,36.0,-100.00,West,273,26.0,34.0,71,-99.99,,,-99.99,,2013-03-16 21:12:00,
2013-03-16 14:22:00,45.0,36.0,-100.00,West,273,30.0,40.0,70,-99.99,,,-99.99,,2013-03-16 21:22:00,
2013-03-16 14:32:00,46.0,35.0,-100.00,West,271,28.0,35.0,66,-99.99,,,-99.99,,2013-03-16 21:32:00,
2013-03-16 14:43:00,46.0,35.0,-100.00,West,272,25.0,34.0,66,-99.99,,,-99.99,,2013-03-16 21:43:00,
2013-03-16 14:52:00,45.0,37.0,-100.00,WNW,283,22.0,30.0,73,-99.99,,,-99.99,,2013-03-16 21:52:00,
2013-03-16 15:03:00,43.0,40.0,-100.00,WNW,300,20.0,27.0,88,-99.99,,,-99.99,,2013-03-16 22:03:00,
2013-03-16 15:12:00,43.0,40.0,-100.00,WNW,300,14.0,19.0,87,-99.99,,,-99.99,,2013-03-16 22:12:00,
2013-03-16 15:22:00,43.0,38.0,-100.00,WNW,302,12.0,16.0,81,-99.99,,,-99.99,,2013-03-16 22:22:00,
2013-03-16 15:32:00,43.0,38.0,-100.00,WNW,296,15.0,22.0,80,-99.99,,,-99.99,,2013-03-16 22:32:00,
2013-03-16 15:42:00,45.0,39.0,-100.00,WNW,287,18.0,29.0,78,-99.99,,,-99.99,,2013-03-16 22:42:00,
2013-03-16 15:52:00,45.0,35.0,-100.00,WSW,258,23.0,32.0,68,-99.99,,,-99.99,,2013-03-16 22:52:00,
2013-03-16 16:02:00,45.0,36.0,-100.00,West,267,17.0,27.0,69,-99.99,,,-99.99,,2013-03-16 23:02:00,
2013-03-16 16:12:00,43.0,38.0,-100.00,NW,314,12.0,19.0,84,-99.99,,,-99.99,,2013-03-16 23:12:00,
2013-03-16 16:22:00,43.0,38.0,-100.00,NW,321,12.0,15.0,85,-99.99,,,-99.99,,2013-03-16 23:22:00,
2013-03-16 16:32:00,42.0,39.0,-100.00,NW,316,12.0,16.0,88,-99.99,,,-99.99,,2013-03-16 23:32:00,
2013-03-16 16:42:00,42.0,39.0,-100.00,NW,320,12.0,17.0,89,-99.99,,,-99.99,,2013-03-16 23:42:00,
2013-03-16 16:52:00,42.0,40.0,-100.00,NW,320,11.0,14.0,89,-99.99,,,-99.99,,2013-03-16 23:52:00,
2013-03-16 17:01:00,42.0,39.0,-100.00,NW,325,11.0,15.0,88,-99.99,,,-99.99,,2013-03-17 00:01:00,
2013-03-16 17:12:00,42.0,39.0,-100.00,NNW,335,9.0,14.0,89,-99.99,,,-99.99,,2013-03-17 00:12:00,
2013-03-16 17:22:00,43.0,39.0,-100.00,NNW,331,10.0,14.0,86,-99.99,,,-99.99,,2013-03-17 00:22:00,
2013-03-16 17:32:00,43.0,39.0,-100.00,NNW,327,5.0,8.0,85,-99.99,,,-99.99,,2013-03-17 00:32:00,
2013-03-16 17:42:00,43.0,39.0,-100.00,NNW,327,5.0,8.0,85,-99.99,,,-99.99,,2013-03-17 00:42:00,
2013-03-16 17:52:00,42.0,39.0,-100.00,NW,313,11.0,16.0,86,-99.99,,,-99.99,,2013-03-17 00:52:00,
2013-03-16 18:02:00,42.0,38.0,-100.00,NW,317,13.0,20.0,84,-99.99,,,-99.99,,2013-03-17 01:02:00,
2013-03-16 18:12:00,41.0,38.0,-100.00,NW,317,17.0,22.0,90,-99.99,,,-99.99,,2013-03-17 01:12:00,
2013-03-16 18:22:00,40.0,39.0,-100.00,WNW,303,21.0,27.0,94,-99.99,,,-99.99,,2013-03-17 01:22:00,
2013-03-16 18:32:00,39.0,39.0,-100.00,NW,304,22.0,27.0,98,-99.99,,,-99.99,,2013-03-17 01:32:00,
2013-03-16 18:42:00,39.0,39.0,-100.00,WNW,286,21.0,29.0,99,-99.99,,,-99.99,,2013-03-17 01:42:00,
2013-03-16 18:52:00,38.0,38.0,-100.00,WNW,288,24.0,32.0,99,-99.99,,,-99.99,,2013-03-17 01:52:00,
2013-03-16 19:02:00,38.0,37.0,-100.00,West,280,27.0,37.0,99,-99.99,,,-99.99,,2013-03-17 02:02:00,
2013-03-16 19:12:00,37.0,36.0,-100.00,WNW,289,28.0,35.0,96,-99.99,,,-99.99,,2013-03-17 02:12:00,
2013-03-16 19:22:00,37.0,35.0,-100.00,WNW,287,35.0,43.0,93,-99.99,,,-99.99,,2013-03-17 02:22:00,
2013-03-16 19:33:00,36.0,35.0,-100.00,WNW,290,33.0,40.0,95,-99.99,,,-99.99,,2013-03-17 02:33:00,
2013-03-16 19:42:00,35.0,34.0,-100.00,WNW,288,34.0,41.0,97,-99.99,,,-99.99,,2013-03-17 02:42:00,
2013-03-16 19:52:00,34.0,34.0,-100.00,WNW,286,34.0,41.0,98,-99.99,,,-99.99,,2013-03-17 02:52:00,
2013-03-16 20:02:00,34.0,34.0,-100.00,WNW,287,30.0,38.0,99,-99.99,,,-99.99,,2013-03-17 03:02:00,
2013-03-16 20:12:00,34.0,34.0,-100.00,WNW,285,28.0,34.0,98,-99.99,,,-99.99,,2013-03-17 03:12:00,
2013-03-16 20:22:00,34.0,34.0,-100.00,WNW,282,25.0,31.0,99,-99.99,,,-99.99,,2013-03-17 03:22:00,
2013-03-16 20:33:00,34.0,33.0,-100.00,WNW,284,26.0,31.0,98,-99.99,,,-99.99,,2013-03-17 03:33:00,
2013-03-16 20:42:00,34.0,33.0,-100.00,West,281,25.0,30.0,97,-99.99,,,-99.99,,2013-03-17 03:42:00,
2013-03-16 20:52:00,34.0,33.0,-100.00,West,279,27.0,33.0,95,-99.99,,,-99.99,,2013-03-17 03:52:00,
2013-03-16 21:02:00,34.0,33.0,-100.00,West,276,28.0,34.0,96,-99.99,,,-99.99,,2013-03-17 04:02:00,
2013-03-16 21:12:00,34.0,33.0,-100.00,West,274,28.0,35.0,96,-99.99,,,-99.99,,2013-03-17 04:12:00,
2013-03-16 21:23:00,34.0,33.0,-100.00,West,277,30.0,41.0,97,-99.99,,,-99.99,,2013-03-17 04:23:00,
2013-03-16 21:32:00,34.0,33.0,-100.00,West,281,22.0,27.0,96,-99.99,,,-99.99,,2013-03-17 04:32:00,
2013-03-16 21:42:00,34.0,33.0,-100.00,WNW,284,21.0,28.0,96,-99.99,,,-99.99,,2013-03-17 04:42:00,
2013-03-16 21:53:00,34.0,33.0,-100.00,West,280,25.0,30.0,95,-99.99,,,-99.99,,2013-03-17 04:53:00,
2013-03-16 22:02:00,34.0,33.0,-100.00,West,278,25.0,33.0,95,-99.99,,,-99.99,,2013-03-17 05:02:00,
2013-03-16 22:12:00,34.0,33.0,-100.00,West,270,21.0,29.0,96,-99.99,,,-99.99,,2013-03-17 05:12:00,
2013-03-16 22:22:00,33.0,33.0,-100.00,West,266,17.0,23.0,97,-99.99,,,-99.99,,2013-03-17 05:22:00,
2013-03-16 22:32:00,33.0,33.0,-100.00,WSW,248,16.0,22.0,99,-99.99,,,-99.99,,2013-03-17 05:32:00,
2013-03-16 22:42:00,33.0,33.0,-100.00,West,259,15.0,19.0,99,-99.99,,,-99.99,,2013-03-17 05:42:00,
2013-03-16 22:52:00,33.0,33.0,-100.00,West,274,18.0,25.0,98,-99.99,,,-99.99,,2013-03-17 05:52:00,
2013-03-16 23:02:00,33.0,33.0,-100.00,West,270,17.0,24.0,97,-99.99,,,-99.99,,2013-03-17 06:02:00,
2013-03-16 23:12:00,34.0,33.0,-100.00,West,271,16.0,22.0,96,-99.99,,,-99.99,,2013-03-17 06:12:00,
2013-03-16 23:22:00,34.0,33.0,-100.00,West,278,19.0,27.0,95,-99.99,,,-99.99,,2013-03-17 06:22:00,
2013-03-16 23:32:00,33.0,32.0,-100.00,WNW,289,22.0,31.0,95,-99.99,,,-99.99,,2013-03-17 06:32:00,
2013-03-16 23:42:00,32.0,32.0,-100.00,WNW,290,38.0,50.0,99,-99.99,,,-99.99,,2013-03-17 06:42:00,
2013-03-16 23:52:00,32.0,32.0,-100.00,WNW,289,37.0,50.0,100,-99.99,,,-99.99,,2013-03-17 06:52:00,